Time;durP1;ratioP1;P1;durP2;ratioP2;P2;SDS_P1;SDS_P2;PMS_P1;PMS_P2;Temp;Humidity;BMP_temperature;BMP_pressure;BME280_temperature;BME280_humidity;BME280_pressure;Samples;Min_cycle;Max_cycle;Signal;HPM_P1;HPM_P2
2022/06/17 00:00:34;;;;;;;1.63;1.53;;;;;24.10;101325.00;;;;2044159;28;20220;-69
2022/06/17 00:01:34;;;;;;;1.60;1.50;;;;;24.10;101331.00;;;;2043843;28;20235;-68
2022/06/17 00:02:34;;;;;;;1.83;1.73;;;;;24.10;101324.00;;;;2043729;28;20211;-69
2022/06/17 00:03:35;;;;;;;1.97;1.70;;;;;24.10;101327.00;;;;2041551;28;20271;-68
2022/06/17 00:04:35;;;;;;;1.70;1.60;;;;;24.10;101333.00;;;;2043810;28;20213;-69
2022/06/17 00:05:35;;;;;;;1.90;1.80;;;;;24.10;101328.00;;;;2043554;28;20219;-69
2022/06/17 00:06:44;;;;;;;1.97;1.63;;;;;24.10;101326.00;;;;2042917;28;20205;-68
2022/06/17 00:07:44;;;;;;;1.83;1.73;;;;;24.10;101322.00;;;;2036007;28;20296;-68
2022/06/17 00:08:45;;;;;;;1.70;1.60;;;;;24.10;101322.00;;;;2034411;28;20315;-69
2022/06/17 00:09:45;;;;;;;1.63;1.52;;;;;24.10;101319.00;;;;2035021;29;20284;-68
2022/06/17 00:10:46;;;;;;;1.47;1.37;;;;;24.10;101314.00;;;;2043835;28;20287;-69
2022/06/17 00:11:46;;;;;;;1.70;1.60;;;;;24.10;101315.00;;;;2043153;28;20224;-68
2022/06/17 00:12:46;;;;;;;1.67;1.57;;;;;24.10;101303.00;;;;2043698;28;20228;-69
2022/06/17 00:13:47;;;;;;;1.83;1.70;;;;;24.10;101311.00;;;;2044057;28;20224;-69
2022/06/17 00:16:13;;;;;;;2.05;1.95;;;;;24.10;101309.00;;;;2043575;28;20212;-69
2022/06/17 00:17:13;;;;;;;2.00;1.80;;;;;24.00;101303.00;;;;2043797;28;20264;-68
2022/06/17 00:18:14;;;;;;;1.90;1.63;;;;;24.10;101293.00;;;;2044359;28;20213;-68
2022/06/17 00:19:17;;;;;;;1.60;1.50;;;;;24.10;101301.00;;;;2044439;28;20627;-68
2022/06/17 00:20:19;;;;;;;1.85;1.75;;;;;24.10;101290.00;;;;2044413;28;20296;-66
2022/06/17 00:21:25;;;;;;;1.70;1.60;;;;;24.10;101286.00;;;;2043707;28;20216;-69
2022/06/17 00:22:25;;;;;;;1.80;1.60;;;;;24.10;101300.00;;;;2042988;28;20786;-68
2022/06/17 00:23:27;;;;;;;1.80;1.60;;;;;24.10;101303.00;;;;2035462;29;20230;-68
2022/06/17 00:24:30;;;;;;;1.63;1.52;;;;;24.10;101301.00;;;;2035457;28;20697;-69
2022/06/17 00:25:34;;;;;;;1.83;1.73;;;;;24.00;101299.00;;;;2036307;28;20299;-69
2022/06/17 00:26:34;;;;;;;2.10;1.90;;;;;24.10;101302.00;;;;2035838;28;20228;-68
2022/06/17 00:27:35;;;;;;;1.83;1.73;;;;;24.00;101301.00;;;;2043264;29;20212;-68
2022/06/17 00:28:35;;;;;;;1.60;1.50;;;;;24.10;101295.00;;;;2043643;28;20212;-69
2022/06/17 00:29:35;;;;;;;1.90;1.80;;;;;24.00;101301.00;;;;2043389;28;20216;-69
2022/06/17 00:30:36;;;;;;;2.00;1.80;;;;;24.00;101297.00;;;;2043607;28;20248;-68
2022/06/17 00:31:36;;;;;;;1.80;1.70;;;;;24.00;101294.00;;;;2043575;28;20224;-69
2022/06/17 00:32:36;;;;;;;1.60;1.50;;;;;24.10;101295.00;;;;2044421;28;20216;-68
2022/06/17 00:33:37;;;;;;;2.80;1.73;;;;;24.10;101293.00;;;;2044488;28;20240;-69
2022/06/17 00:34:37;;;;;;;1.60;1.50;;;;;24.10;101293.00;;;;2044212;28;20231;-68
2022/06/17 00:35:51;;;;;;;2.23;1.60;;;;;24.10;101299.00;;;;2044376;28;20217;-69
2022/06/17 00:36:57;;;;;;;1.70;1.60;;;;;24.10;101301.00;;;;2042770;29;20294;-68
2022/06/17 00:37:58;;;;;;;1.95;1.85;;;;;24.10;101292.00;;;;2043027;28;20229;-68
2022/06/17 00:38:58;;;;;;;1.53;1.43;;;;;24.00;101300.00;;;;2044631;28;20213;-69
2022/06/17 00:39:59;;;;;;;1.97;1.87;;;;;24.10;101297.00;;;;2044366;28;20221;-69
2022/06/17 00:41:06;;;;;;;1.83;1.73;;;;;24.10;101298.00;;;;2044460;28;20248;-69
2022/06/17 00:42:11;;;;;;;1.85;1.67;;;;;24.10;101304.00;;;;2042734;28;20215;-69
2022/06/17 00:43:23;;;;;;;1.75;1.58;;;;;24.10;101300.00;;;;2042781;28;20727;-69
2022/06/17 00:44:37;;;;;;;1.70;1.60;;;;;23.80;101298.00;;;;2044324;28;20259;-69
2022/06/17 00:45:40;;;;;;;1.60;1.50;;;;;24.00;101285.00;;;;2036430;29;20572;-69
2022/06/17 00:46:57;;;;;;;1.85;1.75;;;;;24.10;101286.00;;;;2042850;28;20224;-68
2022/06/17 00:48:18;;;;;;;1.70;1.60;;;;;24.00;101274.00;;;;2038974;29;20608;-68
2022/06/17 00:49:40;;;;;;;1.85;1.75;;;;;24.00;101279.00;;;;2031447;29;20213;-69
2022/06/17 00:51:20;;;;;;;1.70;1.60;;;;;24.00;101286.00;;;;2039924;28;20216;-69
2022/06/17 00:52:22;;;;;;;2.47;2.15;;;;;24.00;101281.00;;;;2042851;28;20308;-69
2022/06/17 00:53:25;;;;;;;1.67;1.50;;;;;24.00;101285.00;;;;2043525;28;20224;-68
2022/06/17 00:54:28;;;;;;;2.25;2.05;;;;;24.00;101279.00;;;;2043517;28;20213;-69
2022/06/17 00:55:37;;;;;;;1.83;1.70;;;;;24.00;101286.00;;;;2043528;28;20227;-69
2022/06/17 00:56:37;;;;;;;1.58;1.42;;;;;24.00;101282.00;;;;2042584;28;20292;-68
2022/06/17 00:57:39;;;;;;;1.60;1.50;;;;;24.00;101286.00;;;;2043196;28;20249;-68
2022/06/17 00:59:04;;;;;;;1.60;1.50;;;;;24.00;101287.00;;;;2043716;28;20267;-69
2022/06/17 01:00:04;;;;;;;1.85;1.75;;;;;24.00;101282.00;;;;2043253;28;20216;-69
2022/06/17 01:01:08;;;;;;;1.90;1.73;;;;;24.00;101296.00;;;;2043354;28;20226;-69
2022/06/17 01:02:09;;;;;;;1.80;1.60;;;;;24.00;101295.00;;;;2037659;29;20699;-69
2022/06/17 01:03:12;;;;;;;1.67;1.57;;;;;24.00;101291.00;;;;2031510;29;20213;-68
2022/06/17 01:04:16;;;;;;;1.90;1.80;;;;;24.00;101294.00;;;;2039455;29;20208;-69
2022/06/17 01:05:18;;;;;;;1.70;1.60;;;;;24.00;101294.00;;;;2039530;29;20256;-68
2022/06/17 01:06:21;;;;;;;1.98;1.80;;;;;24.00;101294.00;;;;2035459;28;20243;-69
2022/06/17 01:07:23;;;;;;;1.92;1.77;;;;;24.00;101283.00;;;;2042517;28;20271;-69
2022/06/17 01:09:58;;;;;;;2.10;1.90;;;;;24.00;101296.00;;;;2037983;28;20224;-69
2022/06/17 01:10:58;;;;;;;1.60;1.50;;;;;24.00;101294.00;;;;2034870;28;20633;-69
2022/06/17 01:12:01;;;;;;;2.50;1.83;;;;;24.00;101289.00;;;;2035866;28;20216;-69
2022/06/17 01:13:03;;;;;;;2.10;1.83;;;;;24.00;101288.00;;;;2034788;29;20281;-69
2022/06/17 01:14:04;;;;;;;2.00;1.80;;;;;24.00;101273.00;;;;2035839;28;20229;-69
2022/06/17 01:15:05;;;;;;;1.87;1.77;;;;;24.00;101287.00;;;;2042752;28;20609;-67
2022/06/17 01:16:06;;;;;;;1.95;1.85;;;;;24.00;101282.00;;;;2035509;28;20449;-68
2022/06/17 01:17:06;;;;;;;1.97;1.80;;;;;24.00;101281.00;;;;2035246;29;20212;-68
2022/06/17 01:18:07;;;;;;;2.00;1.80;;;;;24.00;101287.00;;;;2042274;28;20224;-68
2022/06/17 01:19:16;;;;;;;1.90;1.80;;;;;24.00;101278.00;;;;2042634;28;20212;-69
2022/06/17 01:20:17;;;;;;;1.70;1.60;;;;;24.00;101283.00;;;;2042965;28;20217;-69
2022/06/17 01:21:25;;;;;;;2.63;2.13;;;;;24.00;101276.00;;;;2043403;28;20225;-68
2022/06/17 01:22:25;;;;;;;1.80;1.70;;;;;24.00;101282.00;;;;2035486;28;20308;-69
2022/06/17 01:23:26;;;;;;;1.77;1.67;;;;;23.80;101281.00;;;;2035168;28;20239;-69
2022/06/17 01:24:26;;;;;;;1.80;1.70;;;;;24.00;101272.00;;;;2042452;28;20253;-69
2022/06/17 01:25:32;;;;;;;1.70;1.60;;;;;24.00;101270.00;;;;2034699;28;20292;-69
2022/06/17 01:26:33;;;;;;;1.80;1.70;;;;;24.00;101270.00;;;;2034729;29;20705;-69
2022/06/17 01:27:37;;;;;;;2.10;1.90;;;;;24.00;101268.00;;;;2031232;29;20226;-69
2022/06/17 01:28:37;;;;;;;1.75;1.65;;;;;24.00;101283.00;;;;2038915;28;20237;-68
2022/06/17 01:29:39;;;;;;;1.90;1.80;;;;;24.00;101287.00;;;;2043507;28;20220;-68
2022/06/17 01:30:44;;;;;;;1.90;1.80;;;;;24.00;101288.00;;;;2042693;29;20212;-69
2022/06/17 01:31:47;;;;;;;2.05;1.95;;;;;24.00;101280.00;;;;2042635;28;20208;-69
2022/06/17 01:33:12;;;;;;;2.22;1.75;;;;;24.00;101281.00;;;;2042486;28;20217;-69
2022/06/17 01:34:13;;;;;;;2.00;1.73;;;;;24.00;101290.00;;;;2042897;28;20227;-69
2022/06/17 01:35:14;;;;;;;1.90;1.80;;;;;24.00;101278.00;;;;2043368;28;20213;-69
2022/06/17 01:36:20;;;;;;;1.87;1.77;;;;;24.00;101279.00;;;;2035627;28;20226;-68
2022/06/17 01:37:20;;;;;;;1.60;1.50;;;;;24.00;101282.00;;;;2034802;28;20212;-69
2022/06/17 01:38:21;;;;;;;2.57;1.90;;;;;24.00;101286.00;;;;2034658;28;20229;-69
2022/06/17 01:39:21;;;;;;;2.20;2.00;;;;;24.00;101284.00;;;;2040970;29;20217;-69
2022/06/17 01:40:22;;;;;;;1.80;1.70;;;;;24.00;101282.00;;;;2035131;28;20225;-68
2022/06/17 01:41:24;;;;;;;1.80;1.70;;;;;24.00;101288.00;;;;2043414;28;20220;-69
2022/06/17 01:42:24;;;;;;;2.15;2.00;;;;;24.00;101280.00;;;;2032137;29;20225;-69
2022/06/17 01:43:29;;;;;;;1.67;1.57;;;;;24.00;101280.00;;;;2037024;28;20759;-68
2022/06/17 01:44:34;;;;;;;3.40;1.73;;;;;24.00;101289.00;;;;2042517;28;20240;-69
2022/06/17 01:45:35;;;;;;;2.10;1.83;;;;;23.90;101280.00;;;;2037982;28;20223;-69
2022/06/17 01:46:37;;;;;;;1.87;1.77;;;;;24.00;101281.00;;;;2029057;29;20244;-69
2022/06/17 01:47:37;;;;;;;1.80;1.63;;;;;24.00;101286.00;;;;2038651;29;20565;-68
2022/06/17 01:48:41;;;;;;;1.60;1.50;;;;;24.00;101281.00;;;;2046955;28;20227;-68
2022/06/17 01:49:45;;;;;;;2.00;1.90;;;;;24.00;101286.00;;;;2036753;29;20213;-68
2022/06/17 01:50:45;;;;;;;1.58;1.48;;;;;24.00;101296.00;;;;2036968;29;20228;-68
2022/06/17 01:51:48;;;;;;;2.37;1.73;;;;;24.00;101296.00;;;;2036539;28;20269;-69
2022/06/17 01:52:57;;;;;;;1.90;1.80;;;;;23.90;101295.00;;;;2037215;29;20296;-69
2022/06/17 01:53:58;;;;;;;1.83;1.65;;;;;23.90;101287.00;;;;2037761;28;20545;-69
2022/06/17 01:55:18;;;;;;;1.87;1.77;;;;;23.90;101298.00;;;;2033373;29;20221;-68
2022/06/17 01:56:19;;;;;;;2.05;1.95;;;;;23.90;101296.00;;;;2033455;28;20874;-69
2022/06/17 01:57:24;;;;;;;1.87;1.77;;;;;23.90;101293.00;;;;2035919;29;20220;-69
2022/06/17 01:58:30;;;;;;;1.88;1.75;;;;;23.90;101293.00;;;;2036521;29;20261;-69
2022/06/17 01:59:34;;;;;;;1.58;1.48;;;;;23.90;101299.00;;;;2029048;29;20655;-69
2022/06/17 02:00:34;;;;;;;2.08;1.50;;;;;23.90;101287.00;;;;2021060;29;20399;-69
2022/06/17 02:01:35;;;;;;;2.07;1.97;;;;;23.90;101297.00;;;;2020618;29;20226;-69
2022/06/17 02:02:35;;;;;;;2.23;2.03;;;;;24.00;101300.00;;;;2020064;29;22173;-67
2022/06/17 02:03:38;;;;;;;1.97;1.80;;;;;23.90;101300.00;;;;2032552;29;20221;-68
2022/06/17 02:04:41;;;;;;;2.03;1.83;;;;;23.90;101294.00;;;;2032811;29;20281;-68
2022/06/17 02:05:43;;;;;;;2.08;1.98;;;;;23.90;101303.00;;;;2033408;29;20218;-69
2022/06/17 02:06:47;;;;;;;2.08;1.88;;;;;23.90;101299.00;;;;2036643;28;20280;-69
2022/06/17 02:07:53;;;;;;;2.05;1.73;;;;;23.90;101293.00;;;;2043942;28;20212;-69
2022/06/17 02:08:54;;;;;;;1.80;1.70;;;;;23.90;101303.00;;;;2036432;28;20759;-69
2022/06/17 02:09:54;;;;;;;1.75;1.50;;;;;23.90;101299.00;;;;2037062;28;20264;-69
2022/06/17 02:10:55;;;;;;;1.73;1.63;;;;;23.90;101301.00;;;;2045537;28;20272;-69
2022/06/17 02:11:56;;;;;;;2.20;2.00;;;;;23.90;101307.00;;;;2045446;28;20243;-68
2022/06/17 02:12:56;;;;;;;1.53;1.43;;;;;23.90;101306.00;;;;2045097;28;20234;-69
2022/06/17 02:13:57;;;;;;;2.23;2.03;;;;;23.90;101305.00;;;;2044785;28;20224;-69
2022/06/17 02:14:57;;;;;;;1.90;1.80;;;;;23.90;101304.00;;;;2043978;29;20902;-69
2022/06/17 02:16:00;;;;;;;1.97;1.70;;;;;23.90;101305.00;;;;2028074;29;20796;-68
2022/06/17 02:17:00;;;;;;;2.20;2.00;;;;;23.90;101299.00;;;;2029286;29;20218;-68
2022/06/17 02:18:01;;;;;;;1.80;1.70;;;;;23.90;101299.00;;;;2028758;29;20218;-69
2022/06/17 02:19:02;;;;;;;1.63;1.53;;;;;23.90;101304.00;;;;2037046;28;20218;-69
2022/06/17 02:20:03;;;;;;;2.17;2.00;;;;;23.90;101302.00;;;;2036634;29;20213;-69
2022/06/17 02:21:05;;;;;;;1.90;1.70;;;;;23.90;101307.00;;;;2044197;28;20234;-68
2022/06/17 02:22:23;;;;;;;1.95;1.85;;;;;23.90;101302.00;;;;2044206;28;20220;-68
2022/06/17 02:23:24;;;;;;;1.80;1.70;;;;;23.90;101296.00;;;;2044422;28;20646;-68
2022/06/17 02:24:24;;;;;;;2.30;2.10;;;;;23.90;101298.00;;;;2043946;28;20248;-69
2022/06/17 02:25:29;;;;;;;1.97;1.80;;;;;23.90;101301.00;;;;2036142;29;20289;-68
2022/06/17 02:26:31;;;;;;;1.75;1.65;;;;;23.90;101297.00;;;;2036570;29;20682;-69
2022/06/17 02:27:32;;;;;;;1.80;1.70;;;;;23.90;101300.00;;;;2028851;29;20297;-69
2022/06/17 02:28:32;;;;;;;1.83;1.70;;;;;23.90;101299.00;;;;2020629;29;20780;-68
2022/06/17 02:29:33;;;;;;;1.90;1.80;;;;;23.90;101292.00;;;;2021124;29;20304;-68
2022/06/17 02:30:34;;;;;;;2.13;1.67;;;;;23.90;101290.00;;;;2027802;29;20655;-69
2022/06/17 02:31:34;;;;;;;2.27;1.87;;;;;23.90;101295.00;;;;2028097;29;20655;-68
2022/06/17 02:32:34;;;;;;;2.00;1.90;;;;;23.90;101299.00;;;;2028042;29;20230;-69
2022/06/17 02:33:36;;;;;;;2.10;2.00;;;;;23.90;101286.00;;;;2043849;28;20220;-68
2022/06/17 02:34:42;;;;;;;1.80;1.70;;;;;23.90;101293.00;;;;2035882;28;20329;-69
2022/06/17 02:36:02;;;;;;;1.70;1.60;;;;;23.90;101299.00;;;;2036753;28;20722;-69
2022/06/17 02:37:05;;;;;;;1.63;1.52;;;;;23.90;101301.00;;;;2043804;28;20315;-69
2022/06/17 02:38:05;;;;;;;2.08;1.98;;;;;23.90;101302.00;;;;2044222;28;20240;-69
2022/06/17 02:39:06;;;;;;;3.80;1.90;;;;;23.90;101299.00;;;;2044404;28;20205;-67
2022/06/17 02:40:29;;;;;;;2.10;1.93;;;;;23.90;101294.00;;;;2036647;29;20214;-67
2022/06/17 02:41:30;;;;;;;2.25;1.83;;;;;23.90;101292.00;;;;2046353;28;20220;-68
2022/06/17 02:42:33;;;;;;;1.83;1.73;;;;;23.90;101294.00;;;;2043866;28;20655;-69
2022/06/17 02:43:36;;;;;;;2.08;1.98;;;;;23.90;101294.00;;;;2036244;29;20265;-69
2022/06/17 02:44:39;;;;;;;2.00;1.77;;;;;23.90;101295.00;;;;2036888;28;20214;-69
2022/06/17 02:45:42;;;;;;;2.00;1.90;;;;;23.90;101301.00;;;;2040386;29;20223;-69
2022/06/17 02:46:42;;;;;;;2.33;1.95;;;;;23.90;101304.00;;;;2032268;29;20221;-68
2022/06/17 02:47:42;;;;;;;1.97;1.87;;;;;23.90;101310.00;;;;2028859;29;20313;-69
2022/06/17 02:48:58;;;;;;;1.70;1.60;;;;;23.90;101304.00;;;;2040051;29;20225;-69
2022/06/17 02:49:58;;;;;;;1.88;1.70;;;;;23.90;101304.00;;;;2037204;28;20221;-69
2022/06/17 02:50:59;;;;;;;2.00;1.80;;;;;23.90;101304.00;;;;2032370;29;20685;-68
2022/06/17 02:52:01;;;;;;;2.10;2.00;;;;;23.90;101296.00;;;;2036628;28;20771;-69
2022/06/17 02:53:02;;;;;;;2.00;1.90;;;;;23.90;101306.00;;;;2036230;29;20465;-69
2022/06/17 02:54:02;;;;;;;2.10;1.90;;;;;23.90;101294.00;;;;2043642;28;20684;-69
2022/06/17 02:55:15;;;;;;;2.03;1.80;;;;;23.90;101303.00;;;;2043778;28;20240;-68
2022/06/17 02:56:20;;;;;;;1.95;1.85;;;;;23.90;101287.00;;;;2030411;29;20214;-68
2022/06/17 02:57:23;;;;;;;1.70;1.60;;;;;23.90;101278.00;;;;2032007;29;20718;-68
2022/06/17 02:58:35;;;;;;;1.75;1.65;;;;;23.90;101292.00;;;;2028719;29;20237;-69
2022/06/17 02:59:57;;;;;;;2.30;2.10;;;;;23.90;101243.00;;;;2030586;28;21048;-68
2022/06/17 03:00:57;;;;;;;1.83;1.73;;;;;23.90;101297.00;;;;2038941;29;20247;-69
2022/06/17 03:02:17;;;;;;;2.00;1.90;;;;;23.90;101296.00;;;;2038461;29;20304;-68
2022/06/17 03:03:17;;;;;;;2.20;1.90;;;;;23.90;101299.00;;;;2038616;28;20221;-69
2022/06/17 03:04:19;;;;;;;1.60;1.50;;;;;23.90;101308.00;;;;2038217;28;20780;-69
2022/06/17 03:05:30;;;;;;;1.85;1.60;;;;;23.90;101300.00;;;;2036720;29;20229;-69
2022/06/17 03:06:36;;;;;;;1.90;1.80;;;;;23.90;101302.00;;;;2037501;29;20220;-69
2022/06/17 03:07:37;;;;;;;1.75;1.65;;;;;23.90;101303.00;;;;2043093;28;20916;-68
2022/06/17 03:08:37;;;;;;;1.70;1.60;;;;;23.90;101300.00;;;;2035695;28;20221;-69
2022/06/17 03:09:37;;;;;;;1.80;1.70;;;;;23.90;101306.00;;;;2035737;28;20213;-69
2022/06/17 03:10:40;;;;;;;2.17;2.07;;;;;23.90;101296.00;;;;2044145;28;20220;-68
2022/06/17 03:11:42;;;;;;;1.60;1.50;;;;;23.90;101273.00;;;;2044430;28;20296;-68
2022/06/17 03:12:43;;;;;;;1.80;1.70;;;;;23.90;101301.00;;;;2036607;28;20213;-69
2022/06/17 03:13:53;;;;;;;3.00;1.87;;;;;23.90;101285.00;;;;2028214;29;20588;-69
2022/06/17 03:14:59;;;;;;;1.98;1.88;;;;;23.90;101295.00;;;;2022684;29;20222;-68
2022/06/17 03:16:00;;;;;;;1.60;1.50;;;;;23.90;101301.00;;;;2037499;28;20712;-69
2022/06/17 03:17:02;;;;;;;1.75;1.65;;;;;23.90;101295.00;;;;2044263;29;20217;-69
2022/06/17 03:18:02;;;;;;;2.30;2.10;;;;;23.80;101295.00;;;;2036425;29;20232;-69
2022/06/17 03:19:02;;;;;;;2.33;1.80;;;;;23.90;101295.00;;;;2036463;28;20241;-68
2022/06/17 03:20:04;;;;;;;2.07;1.90;;;;;23.90;101295.00;;;;2043783;28;20219;-68
2022/06/17 03:21:05;;;;;;;1.60;1.50;;;;;23.90;101292.00;;;;2044019;28;20565;-69
2022/06/17 03:22:07;;;;;;;1.70;1.60;;;;;23.90;101288.00;;;;2044018;28;20216;-67
2022/06/17 03:23:12;;;;;;;1.73;1.63;;;;;23.90;101289.00;;;;2035348;28;20272;-69
2022/06/17 03:24:24;;;;;;;2.00;1.90;;;;;23.90;101296.00;;;;2029796;29;20246;-69
2022/06/17 03:25:40;;;;;;;1.70;1.60;;;;;23.80;101291.00;;;;2040450;29;20213;-69
2022/06/17 03:26:56;;;;;;;1.85;1.75;;;;;23.90;101292.00;;;;2043153;29;20576;-68
2022/06/17 03:27:59;;;;;;;1.90;1.80;;;;;23.90;101295.00;;;;2037223;29;20248;-69
2022/06/17 03:28:59;;;;;;;1.90;1.80;;;;;23.90;101298.00;;;;2036448;28;20224;-69
2022/06/17 03:29:59;;;;;;;1.90;1.80;;;;;23.90;101296.00;;;;2028414;29;20793;-69
2022/06/17 03:31:28;;;;;;;2.23;1.70;;;;;23.90;101300.00;;;;2039668;29;20584;-69
2022/06/17 03:32:33;;;;;;;2.08;1.83;;;;;23.90;101300.00;;;;2043160;28;20213;-69
2022/06/17 03:33:39;;;;;;;1.83;1.73;;;;;23.90;101297.00;;;;2038493;29;20221;-69
2022/06/17 03:34:45;;;;;;;2.45;2.00;;;;;23.90;101306.00;;;;2043429;28;20996;-68
2022/06/17 03:35:46;;;;;;;2.15;1.95;;;;;23.90;101306.00;;;;2034018;29;20681;-69
2022/06/17 03:37:00;;;;;;;1.80;1.70;;;;;23.90;101317.00;;;;2036576;28;20220;-69
2022/06/17 03:38:15;;;;;;;1.67;1.58;;;;;23.90;101310.00;;;;2037547;28;20228;-69
2022/06/17 03:39:24;;;;;;;1.80;1.70;;;;;23.90;101318.00;;;;2036735;29;20264;-68
2022/06/17 03:40:33;;;;;;;2.05;1.85;;;;;23.90;101314.00;;;;2043477;28;20219;-68
2022/06/17 03:41:47;;;;;;;1.70;1.60;;;;;23.90;101311.00;;;;2043381;29;21098;-69
2022/06/17 03:43:08;;;;;;;2.13;2.03;;;;;23.90;101303.00;;;;2037167;28;20236;-69
2022/06/17 03:44:16;;;;;;;2.08;1.88;;;;;23.90;101312.00;;;;2031736;28;20218;-68
2022/06/17 03:45:18;;;;;;;1.80;1.70;;;;;23.90;101309.00;;;;2038931;28;20237;-69
2022/06/17 03:46:19;;;;;;;2.08;1.88;;;;;23.80;101314.00;;;;2036405;28;20216;-68
2022/06/17 03:47:23;;;;;;;1.80;1.70;;;;;23.80;101312.00;;;;2043828;28;20220;-69
2022/06/17 03:48:45;;;;;;;2.15;1.95;;;;;23.80;101312.00;;;;2044102;28;20223;-69
2022/06/17 03:50:08;;;;;;;2.08;1.73;;;;;23.80;101310.00;;;;2044309;28;20709;-69
2022/06/17 03:51:17;;;;;;;2.15;1.95;;;;;23.80;101312.00;;;;2042970;28;20216;-69
2022/06/17 03:52:35;;;;;;;2.00;1.90;;;;;23.80;101309.00;;;;2043350;29;20224;-69
2022/06/17 03:53:36;;;;;;;2.05;1.95;;;;;23.80;101312.00;;;;2045363;28;20242;-69
2022/06/17 03:54:36;;;;;;;1.70;1.60;;;;;23.80;101307.00;;;;2035077;29;20226;-68
2022/06/17 03:55:37;;;;;;;1.90;1.80;;;;;23.80;101309.00;;;;2043849;28;21002;-68
2022/06/17 03:56:39;;;;;;;2.23;2.10;;;;;23.80;101306.00;;;;2043942;28;20720;-68
2022/06/17 03:57:39;;;;;;;2.38;1.83;;;;;23.90;101315.00;;;;2035985;29;20348;-69
2022/06/17 03:58:40;;;;;;;1.60;1.50;;;;;23.80;101291.00;;;;2028286;29;20221;-69
2022/06/17 03:59:41;;;;;;;2.00;1.90;;;;;23.80;101307.00;;;;2035378;29;20371;-68
2022/06/17 04:00:44;;;;;;;2.57;1.97;;;;;23.80;101307.00;;;;2038259;28;20213;-69
2022/06/17 04:01:47;;;;;;;2.28;2.08;;;;;23.80;101312.00;;;;2037313;29;20465;-69
2022/06/17 04:02:48;;;;;;;2.00;1.90;;;;;23.80;101312.00;;;;2043460;28;20221;-69
2022/06/17 04:03:50;;;;;;;1.75;1.65;;;;;23.80;101316.00;;;;2044639;28;20213;-68
2022/06/17 04:04:51;;;;;;;1.77;1.67;;;;;23.90;101314.00;;;;2043761;28;20724;-69
2022/06/17 04:05:59;;;;;;;1.70;1.60;;;;;23.80;101320.00;;;;2036059;28;20219;-69
2022/06/17 04:07:00;;;;;;;1.70;1.60;;;;;23.80;101323.00;;;;2046026;28;20261;-69
2022/06/17 04:08:00;;;;;;;1.80;1.70;;;;;23.80;101319.00;;;;2042951;28;20695;-69
2022/06/17 04:09:18;;;;;;;1.50;1.40;;;;;23.80;101314.00;;;;2043836;28;20513;-68
2022/06/17 04:10:20;;;;;;;1.75;1.65;;;;;23.80;101323.00;;;;2042884;28;20231;-69
2022/06/17 04:11:22;;;;;;;2.15;1.95;;;;;23.80;101318.00;;;;2035360;28;20214;-69
2022/06/17 04:12:26;;;;;;;1.50;1.40;;;;;23.80;101330.00;;;;2043987;28;20264;-69
2022/06/17 04:13:29;;;;;;;2.30;2.10;;;;;23.80;101321.00;;;;2036001;28;20229;-68
2022/06/17 04:15:03;;;;;;;1.75;1.65;;;;;23.80;101329.00;;;;2036073;28;20213;-69
2022/06/17 04:16:15;;;;;;;1.60;1.50;;;;;23.80;101328.00;;;;2038675;29;20213;-69
2022/06/17 04:17:16;;;;;;;1.98;1.88;;;;;23.80;101336.00;;;;2032258;29;20709;-69
2022/06/17 04:18:16;;;;;;;2.00;1.90;;;;;23.80;101344.00;;;;2035582;29;20316;-69
2022/06/17 04:19:20;;;;;;;1.70;1.60;;;;;23.80;101343.00;;;;2043517;28;20220;-68
2022/06/17 04:20:31;;;;;;;2.00;1.60;;;;;23.90;101340.00;;;;2043732;28;20209;-69
2022/06/17 04:21:32;;;;;;;1.90;1.80;;;;;23.80;101345.00;;;;2043348;28;20255;-69
2022/06/17 04:22:35;;;;;;;1.90;1.80;;;;;23.80;101332.00;;;;2043555;28;20216;-68
2022/06/17 04:23:36;;;;;;;1.83;1.73;;;;;23.80;101341.00;;;;2042678;28;20579;-68
2022/06/17 04:24:36;;;;;;;1.93;1.80;;;;;23.80;101339.00;;;;2035250;29;20227;-68
2022/06/17 04:25:50;;;;;;;2.00;1.60;;;;;23.80;101335.00;;;;2027195;29;20218;-69
2022/06/17 04:26:53;;;;;;;1.73;1.63;;;;;23.80;101337.00;;;;2035248;29;20722;-68
2022/06/17 04:27:56;;;;;;;1.63;1.52;;;;;23.80;101326.00;;;;2031630;29;20284;-69
2022/06/17 04:29:04;;;;;;;1.75;1.65;;;;;23.80;101330.00;;;;2032092;29;20297;-69
2022/06/17 04:30:06;;;;;;;1.90;1.80;;;;;23.80;101329.00;;;;2037245;28;20300;-69
2022/06/17 04:31:07;;;;;;;1.60;1.50;;;;;23.80;101317.00;;;;2035736;28;20821;-68
2022/06/17 04:32:13;;;;;;;2.00;1.80;;;;;23.80;101326.00;;;;2034878;29;20625;-69
2022/06/17 04:33:26;;;;;;;2.45;2.10;;;;;23.80;101325.00;;;;2035406;29;20228;-68
2022/06/17 04:34:27;;;;;;;1.95;1.80;;;;;23.80;101322.00;;;;2041597;28;20235;-68
2022/06/17 04:35:27;;;;;;;1.83;1.73;;;;;23.80;101324.00;;;;2043664;28;20582;-68
2022/06/17 04:36:46;;;;;;;2.37;2.17;;;;;23.80;101332.00;;;;2034994;28;20582;-69
2022/06/17 04:37:47;;;;;;;1.70;1.60;;;;;23.80;101335.00;;;;2037137;28;20217;-69
2022/06/17 04:38:49;;;;;;;1.90;1.80;;;;;23.80;101330.00;;;;2043584;28;20244;-69
2022/06/17 04:39:56;;;;;;;1.90;1.80;;;;;23.80;101337.00;;;;2043448;28;20759;-69
2022/06/17 04:40:58;;;;;;;1.98;1.77;;;;;23.80;101341.00;;;;2043382;28;20223;-69
2022/06/17 04:42:07;;;;;;;2.08;1.98;;;;;23.80;101341.00;;;;2042902;28;20279;-68
2022/06/17 04:43:21;;;;;;;2.33;2.17;;;;;23.80;101344.00;;;;2042477;28;20299;-69
2022/06/17 04:44:22;;;;;;;1.77;1.67;;;;;23.80;101346.00;;;;2026686;29;20275;-68
2022/06/17 04:45:27;;;;;;;1.80;1.70;;;;;23.80;101351.00;;;;2028115;29;20228;-69
2022/06/17 04:46:34;;;;;;;1.77;1.67;;;;;23.80;101338.00;;;;2043594;28;20465;-69
2022/06/17 04:47:35;;;;;;;2.10;1.90;;;;;23.80;101358.00;;;;2043188;28;20216;-68
2022/06/17 04:48:36;;;;;;;1.70;1.60;;;;;23.80;101356.00;;;;2043551;28;20707;-69
2022/06/17 04:49:37;;;;;;;1.80;1.70;;;;;23.80;101351.00;;;;2043917;28;20694;-69
2022/06/17 04:50:37;;;;;;;2.10;1.88;;;;;23.80;101349.00;;;;2034892;28;20456;-69
2022/06/17 04:51:38;;;;;;;2.33;2.13;;;;;23.80;101340.00;;;;2034635;28;20329;-69
2022/06/17 04:52:42;;;;;;;2.10;1.90;;;;;23.80;101339.00;;;;2046303;28;20213;-68
2022/06/17 04:53:44;;;;;;;1.95;1.75;;;;;23.80;101334.00;;;;2043020;28;20218;-69
2022/06/17 04:54:44;;;;;;;1.80;1.70;;;;;23.80;101344.00;;;;2034562;28;20318;-69
2022/06/17 04:55:46;;;;;;;2.17;1.98;;;;;23.80;101328.00;;;;2034852;28;20237;-68
2022/06/17 04:56:47;;;;;;;1.70;1.60;;;;;23.80;101345.00;;;;2042328;28;20227;-68
2022/06/17 04:57:48;;;;;;;2.20;2.00;;;;;23.80;101347.00;;;;2034690;29;20591;-68
2022/06/17 04:58:48;;;;;;;1.50;1.40;;;;;23.80;101349.00;;;;2042009;28;20216;-69
2022/06/17 04:59:49;;;;;;;2.00;1.90;;;;;23.80;101341.00;;;;2043000;28;20228;-69
2022/06/17 05:00:54;;;;;;;1.70;1.60;;;;;23.90;101343.00;;;;2043041;28;20204;-68
2022/06/17 05:01:54;;;;;;;1.95;1.85;;;;;23.90;101328.00;;;;2043463;28;20216;-68
2022/06/17 05:02:55;;;;;;;2.23;2.13;;;;;23.90;101335.00;;;;2042404;28;20216;-69
2022/06/17 05:03:59;;;;;;;1.70;1.60;;;;;23.90;101335.00;;;;2042483;29;20213;-69
2022/06/17 05:05:01;;;;;;;1.77;1.67;;;;;23.90;101342.00;;;;2034751;28;20323;-69
2022/06/17 05:06:01;;;;;;;1.92;1.83;;;;;23.90;101334.00;;;;2034719;28;20221;-69
2022/06/17 05:07:02;;;;;;;2.17;1.90;;;;;23.90;101336.00;;;;2042144;29;20661;-69
2022/06/17 05:08:04;;;;;;;3.57;1.60;;;;;23.90;101331.00;;;;2042927;28;20209;-68
2022/06/17 05:09:13;;;;;;;2.10;1.90;;;;;23.90;101321.00;;;;2035357;28;20234;-69
2022/06/17 05:10:19;;;;;;;1.65;1.55;;;;;23.90;101330.00;;;;2035876;28;20715;-68
2022/06/17 05:11:32;;;;;;;1.80;1.70;;;;;23.90;101329.00;;;;2038128;28;20304;-69
2022/06/17 05:12:36;;;;;;;2.28;1.95;;;;;23.90;101334.00;;;;2042448;28;20340;-68
2022/06/17 05:13:42;;;;;;;1.80;1.70;;;;;23.90;101325.00;;;;2044044;28;20240;-68
2022/06/17 05:14:51;;;;;;;1.90;1.80;;;;;23.90;101325.00;;;;2034991;29;20311;-68
2022/06/17 05:15:52;;;;;;;2.80;1.80;;;;;23.90;101334.00;;;;2029622;29;20249;-69
2022/06/17 05:16:52;;;;;;;2.00;1.90;;;;;23.90;101333.00;;;;2036793;29;20205;-69
2022/06/17 05:17:54;;;;;;;2.03;1.93;;;;;23.90;101327.00;;;;2042908;28;20213;-68
2022/06/17 05:18:55;;;;;;;2.38;2.17;;;;;23.90;101327.00;;;;2043862;28;20248;-69
2022/06/17 05:19:55;;;;;;;1.90;1.80;;;;;23.90;101333.00;;;;2042753;28;20213;-69
2022/06/17 05:20:55;;;;;;;1.90;1.80;;;;;23.90;101327.00;;;;2043210;28;20231;-69